createdAt,value
2022-09-28T00:02:09.598Z,80.30
2022-09-28T00:04:53.236Z,80.06
2022-09-28T00:07:36.636Z,80.36
2022-09-28T00:10:23.821Z,80.35
2022-09-28T00:13:08.175Z,80.26
2022-09-28T00:16:08.332Z,79.42
2022-09-28T00:18:52.314Z,80.79
2022-09-28T00:21:39.607Z,81.05
2022-09-28T00:24:27.279Z,80.09
2022-09-28T00:27:11.187Z,81.13
2022-09-28T00:29:55.171Z,81.08
2022-09-28T00:32:38.671Z,81.14
2022-09-28T00:35:22.161Z,80.57
2022-09-28T00:38:09.332Z,80.73
2022-09-28T00:40:52.897Z,80.63
2022-09-28T00:43:36.404Z,80.17
2022-09-28T00:46:36.540Z,80.41
2022-09-28T00:49:33.325Z,79.28
2022-09-28T00:52:38.737Z,80.30
2022-09-28T00:55:44.487Z,80.22
2022-09-28T00:58:33.529Z,80.57
2022-09-28T01:01:17.419Z,80.11
2022-09-28T01:04:02.810Z,78.79
2022-09-28T01:06:47.495Z,79.72
2022-09-28T01:09:33.035Z,80.48
2022-09-28T01:12:16.495Z,79.99
2022-09-28T01:15:02.279Z,79.90
2022-09-28T01:18:19.666Z,79.09
2022-09-28T01:21:27.160Z,79.42
2022-09-28T01:24:42.529Z,79.21
2022-09-28T01:27:58.792Z,80.78
2022-09-28T01:31:00.850Z,80.84
2022-09-28T01:34:28.167Z,79.53
2022-09-28T01:37:18.594Z,78.42
2022-09-28T01:40:05.224Z,78.35
2022-09-28T01:43:08.005Z,78.75
2022-09-28T01:46:00.943Z,82.00
2022-09-28T01:48:50.713Z,79.94
2022-09-28T01:51:52.676Z,78.94
2022-09-28T01:54:53.646Z,79.34
2022-09-28T01:57:54.040Z,80.03
2022-09-28T02:00:45.125Z,79.59
2022-09-28T02:03:48.932Z,79.83
2022-09-28T02:06:42.043Z,79.26
2022-09-28T02:09:48.765Z,79.63
2022-09-28T02:12:54.603Z,80.58
2022-09-28T02:15:54.136Z,80.25
2022-09-28T02:18:37.643Z,81.80
2022-09-28T02:22:01.068Z,81.84
2022-09-28T02:24:54.648Z,83.01
2022-09-28T02:27:54.083Z,82.03
2022-09-28T02:30:41.472Z,81.72
2022-09-28T02:33:38.389Z,82.31
2022-09-28T02:36:26.720Z,82.34
2022-09-28T02:39:17.056Z,82.46
2022-09-28T02:42:27.599Z,82.50
2022-09-28T02:45:32.477Z,81.28
2022-09-28T02:49:21.519Z,81.51
2022-09-28T02:52:39.417Z,81.43
2022-09-28T02:55:31.789Z,81.15
2022-09-28T02:58:25.502Z,80.31
2022-09-28T03:01:23.958Z,80.42
2022-09-28T03:04:37.693Z,80.82
2022-09-28T03:07:36.158Z,81.54
2022-09-28T03:10:34.887Z,81.21
2022-09-28T03:13:18.663Z,80.97
2022-09-28T03:16:18.301Z,81.15
2022-09-28T03:19:04.266Z,81.55
2022-09-28T03:21:47.742Z,81.75
2022-09-28T03:24:31.642Z,82.27
2022-09-28T03:27:15.042Z,82.70
2022-09-28T03:29:58.666Z,81.20
2022-09-28T03:32:45.556Z,80.68
2022-09-28T03:35:29.273Z,81.03
2022-09-28T03:38:12.696Z,79.13
2022-09-28T03:41:01.081Z,78.59
2022-09-28T03:43:51.011Z,78.95
2022-09-28T03:46:34.464Z,78.89
2022-09-28T03:49:22.563Z,77.53
2022-09-28T03:52:06.388Z,77.12
2022-09-28T03:54:49.804Z,78.30
2022-09-28T03:57:33.305Z,78.12
2022-09-28T04:00:16.775Z,77.45
2022-09-28T04:03:00.157Z,76.35
2022-09-28T04:05:52.295Z,77.08
2022-09-28T04:08:35.749Z,77.45
2022-09-28T04:11:19.883Z,78.89
2022-09-28T04:14:04.040Z,78.72
2022-09-28T04:16:48.246Z,78.86
2022-09-28T04:19:33.091Z,79.61
2022-09-28T04:22:29.620Z,79.37
2022-09-28T04:25:13.191Z,79.93
2022-09-28T04:28:15.077Z,79.68
2022-09-28T04:30:58.513Z,78.89
2022-09-28T04:33:41.995Z,79.61
2022-09-28T04:36:25.491Z,80.20
2022-09-28T04:39:08.921Z,80.38
2022-09-28T04:41:52.625Z,80.24
2022-09-28T04:44:36.102Z,79.99
2022-09-28T04:47:25.147Z,80.78
2022-09-28T04:50:32.021Z,82.35
2022-09-28T04:53:36.609Z,82.41
2022-09-28T04:56:20.026Z,83.18
2022-09-28T04:59:03.468Z,82.67
2022-09-28T05:01:47.609Z,83.08
2022-09-28T05:04:49.660Z,83.55
2022-09-28T05:07:59.274Z,82.86
2022-09-28T05:10:43.173Z,83.04
2022-09-28T05:13:28.210Z,82.28
2022-09-28T05:16:14.169Z,83.19
2022-09-28T05:19:17.698Z,82.03
2022-09-28T05:22:06.041Z,82.19
2022-09-28T05:24:55.087Z,84.07
2022-09-28T05:27:40.350Z,83.30
2022-09-28T05:30:38.628Z,83.38
2022-09-28T05:33:44.801Z,84.12
2022-09-28T05:36:32.557Z,84.24
2022-09-28T05:39:16.071Z,85.36
2022-09-28T05:41:59.522Z,85.26
2022-09-28T05:44:43.227Z,84.86
2022-09-28T05:47:27.545Z,84.13
2022-09-28T05:50:12.046Z,82.61
2022-09-28T05:53:08.848Z,83.13
2022-09-28T05:55:57.130Z,82.84
2022-09-28T05:58:40.626Z,82.23
2022-09-28T06:01:25.322Z,82.77
2022-09-28T06:04:10.051Z,83.43
2022-09-28T06:06:53.659Z,83.36
2022-09-28T06:09:37.877Z,83.13
2022-09-28T06:12:36.896Z,82.54
2022-09-28T06:15:28.763Z,81.86
2022-09-28T06:18:15.024Z,82.60
2022-09-28T06:21:17.363Z,83.55
2022-09-28T06:24:05.104Z,83.59
2022-09-28T06:26:48.724Z,83.17
2022-09-28T06:29:32.867Z,82.35
2022-09-28T06:32:16.325Z,82.25
2022-09-28T06:35:02.966Z,82.21
2022-09-28T06:37:46.665Z,82.43
2022-09-28T06:40:30.729Z,83.55
2022-09-28T06:43:15.458Z,83.63
2022-09-28T06:46:25.534Z,82.93
2022-09-28T06:49:30.278Z,83.26
2022-09-28T06:52:32.319Z,82.49
2022-09-28T06:55:30.311Z,82.30
2022-09-28T06:58:19.818Z,82.09
2022-09-28T07:01:04.415Z,81.37
2022-09-28T07:03:57.967Z,81.72
2022-09-28T07:07:01.759Z,81.65
2022-09-28T07:10:13.436Z,80.41
2022-09-28T07:13:42.131Z,82.43
2022-09-28T07:16:27.662Z,81.33
2022-09-28T07:19:14.617Z,80.87
2022-09-28T07:22:04.814Z,82.11
2022-09-28T07:24:49.671Z,82.64
2022-09-28T07:27:57.388Z,81.04
2022-09-28T07:31:06.635Z,81.00
2022-09-28T07:34:24.116Z,80.54
2022-09-28T07:37:18.922Z,80.50
2022-09-28T07:40:24.339Z,81.20
2022-09-28T07:43:07.888Z,80.55
2022-09-28T07:45:54.925Z,80.40
2022-09-28T07:48:43.324Z,80.96
2022-09-28T07:51:47.591Z,80.63
2022-09-28T07:54:39.818Z,79.40
2022-09-28T07:57:41.890Z,80.21
2022-09-28T08:00:39.216Z,78.50
2022-09-28T08:03:22.641Z,78.88
2022-09-28T08:06:09.904Z,78.60
2022-09-28T08:08:56.390Z,78.65
2022-09-28T08:11:46.919Z,78.18
2022-09-28T08:14:52.312Z,77.18
2022-09-28T08:17:50.226Z,75.47
2022-09-28T08:20:55.196Z,75.17
2022-09-28T08:23:38.804Z,74.36
2022-09-28T08:26:23.051Z,74.93
2022-09-28T08:29:06.684Z,75.95
2022-09-28T08:32:02.698Z,75.23
2022-09-28T08:35:08.743Z,75.24
2022-09-28T08:38:03.952Z,74.56
2022-09-28T08:41:46.541Z,73.87
2022-09-28T08:45:05.247Z,73.19
2022-09-28T08:48:51.747Z,72.21
2022-09-28T08:52:26.603Z,71.07
2022-09-28T08:55:40.347Z,71.53
2022-09-28T08:58:30.483Z,70.00
2022-09-28T09:01:19.567Z,70.92
2022-09-28T09:04:06.752Z,70.61
2022-09-28T09:07:48.652Z,70.82
2022-09-28T09:11:01.658Z,71.13
2022-09-28T09:14:14.058Z,70.39
2022-09-28T09:17:15.832Z,68.09
2022-09-28T09:20:33.584Z,67.19
2022-09-28T09:24:16.390Z,66.10
2022-09-28T09:27:54.328Z,67.92
2022-09-28T09:31:22.714Z,67.17
2022-09-28T09:34:52.857Z,66.83
2022-09-28T09:38:32.796Z,65.33
2022-09-28T09:41:47.818Z,65.16
2022-09-28T09:44:49.683Z,63.58
2022-09-28T09:48:09.574Z,62.10
2022-09-28T09:51:02.986Z,60.20
2022-09-28T09:54:00.072Z,60.32
2022-09-28T09:57:13.070Z,61.46
2022-09-28T10:00:17.596Z,61.17
2022-09-28T10:03:32.615Z,60.75
2022-09-28T10:06:36.599Z,61.21
2022-09-28T10:09:27.993Z,61.24
2022-09-28T10:12:23.545Z,60.45
2022-09-28T10:15:09.317Z,60.41
2022-09-28T10:18:11.809Z,60.72
2022-09-28T10:21:16.790Z,61.47
2022-09-28T10:24:49.177Z,62.26
2022-09-28T10:27:40.669Z,61.61
2022-09-28T10:30:25.781Z,61.67
2022-09-28T10:33:32.143Z,62.38
2022-09-28T10:36:15.939Z,62.78
2022-09-28T10:39:00.416Z,64.26
2022-09-28T10:41:52.422Z,64.72
2022-09-28T10:45:00.326Z,65.92
2022-09-28T10:47:55.864Z,64.46
2022-09-28T10:50:40.857Z,65.80
2022-09-28T10:53:31.213Z,66.38
2022-09-28T10:56:29.971Z,66.92
2022-09-28T10:59:31.204Z,66.73
2022-09-28T11:02:40.111Z,66.46
2022-09-28T11:05:30.086Z,67.54
2022-09-28T11:08:30.426Z,68.13
2022-09-28T11:11:21.465Z,67.44
2022-09-28T11:14:41.861Z,67.46
2022-09-28T11:17:40.638Z,67.86
2022-09-28T11:20:27.812Z,69.12
2022-09-28T11:23:30.145Z,70.70
2022-09-28T11:26:19.222Z,70.88
2022-09-28T11:29:04.164Z,71.78
2022-09-28T11:32:03.669Z,72.96
2022-09-28T11:34:59.623Z,71.62
2022-09-28T11:38:17.184Z,70.50
2022-09-28T11:41:44.086Z,70.03
2022-09-28T11:44:46.520Z,69.82
2022-09-28T11:47:49.924Z,70.44
2022-09-28T11:50:52.291Z,71.20
2022-09-28T11:53:52.707Z,71.57
2022-09-28T11:56:42.506Z,70.46
2022-09-28T11:59:42.141Z,70.01
2022-09-28T12:03:00.737Z,70.79
2022-09-28T12:05:57.284Z,69.29
2022-09-28T12:08:53.493Z,70.04
2022-09-28T12:12:24.703Z,71.80
2022-09-28T12:15:28.395Z,72.01
2022-09-28T12:18:47.244Z,71.79
2022-09-28T12:21:33.515Z,72.19
2022-09-28T12:24:38.750Z,71.96
2022-09-28T12:27:35.070Z,71.70
2022-09-28T12:30:22.577Z,73.83
2022-09-28T12:33:13.414Z,72.45
2022-09-28T12:36:30.369Z,72.38
2022-09-28T12:39:57.670Z,71.45
2022-09-28T12:43:09.653Z,71.42
2022-09-28T12:46:13.739Z,73.78
2022-09-28T12:50:13.725Z,74.19
2022-09-28T12:53:02.341Z,74.05
2022-09-28T12:55:56.719Z,74.57
2022-09-28T12:59:08.071Z,75.16
2022-09-28T13:02:41.778Z,74.28
2022-09-28T13:05:52.469Z,73.81
2022-09-28T13:09:15.003Z,74.57
2022-09-28T13:12:30.222Z,74.20
2022-09-28T13:15:39.897Z,73.88
2022-09-28T13:19:02.332Z,74.31
2022-09-28T13:22:10.362Z,75.56
2022-09-28T13:25:00.156Z,73.53
2022-09-28T13:27:53.438Z,74.74
2022-09-28T13:30:40.331Z,74.35
2022-09-28T13:33:35.938Z,73.95
2022-09-28T13:36:25.103Z,78.43
2022-09-28T13:40:06.020Z,77.22
2022-09-28T13:43:19.421Z,78.00
2022-09-28T13:46:27.316Z,78.69
2022-09-28T13:49:48.121Z,80.12
2022-09-28T13:52:47.522Z,80.92
2022-09-28T13:55:43.119Z,78.76
2022-09-28T13:58:38.410Z,77.01
2022-09-28T14:01:32.633Z,78.38
2022-09-28T14:04:47.121Z,80.08
2022-09-28T14:07:36.400Z,79.72
2022-09-28T14:10:49.952Z,79.27
2022-09-28T14:13:42.805Z,76.75
2022-09-28T14:16:32.765Z,75.90
2022-09-28T14:19:31.397Z,76.06
2022-09-28T14:23:09.109Z,74.47
2022-09-28T14:26:53.273Z,75.61
2022-09-28T14:29:39.415Z,71.23
2022-09-28T14:32:25.659Z,69.50
2022-09-28T14:35:18.945Z,70.08
2022-09-28T14:38:39.092Z,69.19
2022-09-28T14:41:38.028Z,70.62
2022-09-28T14:44:22.221Z,72.69
2022-09-28T14:47:33.665Z,71.32
2022-09-28T14:50:29.852Z,71.01
2022-09-28T14:53:25.118Z,71.58
2022-09-28T14:56:09.521Z,70.77
2022-09-28T14:58:58.145Z,70.92
2022-09-28T15:02:15.078Z,71.73
2022-09-28T15:05:19.765Z,71.40
2022-09-28T15:08:03.391Z,70.84
2022-09-28T15:10:51.770Z,68.76
2022-09-28T15:13:35.210Z,69.54
2022-09-28T15:16:24.278Z,69.19
2022-09-28T15:19:21.125Z,67.31
2022-09-28T15:22:17.670Z,66.12
2022-09-28T15:25:04.026Z,66.36
2022-09-28T15:27:54.781Z,67.89
2022-09-28T15:30:38.353Z,66.30
2022-09-28T15:33:54.515Z,65.96
2022-09-28T15:36:42.525Z,66.56
2022-09-28T15:39:35.269Z,68.01
2022-09-28T15:42:19.970Z,67.56
2022-09-28T15:45:07.898Z,67.48
2022-09-28T15:48:16.660Z,67.13
2022-09-28T15:51:10.773Z,68.02
2022-09-28T15:54:22.548Z,67.53
2022-09-28T15:57:06.184Z,67.84
2022-09-28T15:59:57.041Z,68.50
2022-09-28T16:03:16.903Z,68.56
2022-09-28T16:06:09.877Z,67.83
2022-09-28T16:08:53.913Z,68.15
2022-09-28T16:11:40.913Z,69.12
2022-09-28T16:14:27.297Z,68.92
2022-09-28T16:17:32.804Z,68.71
2022-09-28T16:20:34.164Z,69.09
2022-09-28T16:23:19.592Z,70.04
2022-09-28T16:26:09.293Z,70.79
2022-09-28T16:28:53.424Z,71.26
2022-09-28T16:31:38.012Z,73.59
2022-09-28T16:34:26.958Z,72.50
2022-09-28T16:37:34.132Z,73.68
2022-09-28T16:40:17.639Z,72.35
2022-09-28T16:43:05.999Z,72.73
2022-09-28T16:45:50.287Z,73.57
2022-09-28T16:48:43.755Z,72.75
2022-09-28T16:51:28.629Z,72.69
2022-09-28T16:54:38.236Z,72.97
2022-09-28T16:57:23.361Z,73.72
2022-09-28T17:00:14.287Z,73.61
2022-09-28T17:02:58.590Z,72.83
2022-09-28T17:05:42.432Z,73.04
2022-09-28T17:08:26.803Z,73.23
2022-09-28T17:11:24.115Z,74.45
2022-09-28T17:14:08.921Z,73.21
2022-09-28T17:20:13.320Z,73.61
2022-09-28T17:22:57.009Z,76.26
2022-09-28T17:25:41.750Z,75.66
2022-09-28T17:28:30.411Z,73.77
2022-09-28T17:31:18.434Z,74.31
2022-09-28T17:34:02.267Z,72.87
2022-09-28T17:36:48.646Z,74.92
2022-09-28T17:39:33.420Z,75.99
2022-09-28T17:42:17.469Z,74.70
2022-09-28T17:45:02.122Z,75.07
2022-09-28T17:47:45.742Z,73.68
2022-09-28T17:50:34.179Z,74.81
2022-09-28T17:53:18.022Z,75.38
2022-09-28T17:56:01.733Z,75.21
2022-09-28T17:58:45.432Z,74.25
2022-09-28T18:01:34.523Z,73.58
2022-09-28T18:04:47.109Z,73.80
2022-09-28T18:07:22.910Z,72.80
2022-09-28T18:10:07.546Z,73.72
2022-09-28T18:12:51.502Z,72.76
2022-09-28T18:15:35.321Z,72.51
2022-09-28T18:18:22.035Z,72.12
2022-09-28T18:21:09.984Z,72.20
2022-09-28T18:23:53.826Z,71.76
2022-09-28T18:26:37.616Z,72.58
2022-09-28T18:29:21.484Z,73.14
2022-09-28T18:32:05.332Z,72.53
2022-09-28T18:34:49.142Z,72.75
2022-09-28T18:37:40.172Z,72.76
2022-09-28T18:40:24.072Z,73.10
2022-09-28T18:43:08.172Z,72.62
2022-09-28T18:45:51.888Z,72.59
2022-09-28T18:48:39.759Z,72.05
2022-09-28T18:51:24.487Z,73.58
2022-09-28T18:54:08.325Z,73.48
2022-09-28T18:56:56.440Z,72.97
2022-09-28T18:59:40.034Z,73.02
2022-09-28T19:02:23.706Z,72.44
2022-09-28T19:05:07.659Z,73.20
2022-09-28T19:07:51.272Z,72.75
2022-09-28T19:10:34.819Z,71.94
2022-09-28T19:13:18.366Z,72.57
2022-09-28T19:16:08.926Z,70.69
2022-09-28T19:18:53.794Z,72.09
2022-09-28T19:21:37.459Z,71.08
2022-09-28T19:24:21.269Z,70.71
2022-09-28T19:27:04.863Z,70.86
2022-09-28T19:29:48.377Z,70.95
2022-09-28T19:32:32.039Z,70.41
2022-09-28T19:35:15.750Z,71.01
2022-09-28T19:37:59.192Z,71.48
2022-09-28T19:40:42.759Z,71.59
2022-09-28T19:43:27.779Z,70.77
2022-09-28T19:46:13.304Z,71.01
2022-09-28T19:49:01.752Z,71.63
2022-09-28T19:52:11.605Z,72.15
2022-09-28T19:55:00.261Z,71.81
2022-09-28T19:57:47.906Z,72.08
2022-09-28T20:00:31.359Z,72.26
2022-09-28T20:03:15.344Z,71.65
2022-09-28T20:06:01.751Z,71.32
2022-09-28T20:08:45.288Z,71.63
2022-09-28T20:11:30.025Z,71.60
2022-09-28T20:14:18.662Z,71.91
2022-09-28T20:17:02.208Z,71.69
2022-09-28T20:19:45.889Z,71.85
2022-09-28T20:22:31.006Z,72.53
2022-09-28T20:25:14.846Z,72.00
2022-09-28T20:27:58.979Z,73.29
2022-09-28T20:30:42.672Z,73.80
2022-09-28T20:33:28.864Z,73.53
2022-09-28T20:36:18.146Z,72.97
2022-09-28T20:39:02.749Z,73.29
2022-09-28T20:41:47.494Z,72.81
2022-09-28T20:44:31.344Z,73.40
2022-09-28T20:47:14.898Z,73.11
2022-09-28T20:49:58.522Z,73.92
2022-09-28T20:52:42.114Z,74.98
2022-09-28T20:55:25.811Z,77.72
2022-09-28T20:58:09.510Z,78.50
2022-09-28T21:00:53.317Z,81.51
2022-09-28T21:03:38.528Z,79.41
2022-09-28T21:06:28.652Z,78.31
2022-09-28T21:09:12.562Z,77.61
2022-09-28T21:11:56.398Z,79.03
2022-09-28T21:14:39.959Z,78.26
2022-09-28T21:17:23.524Z,80.16
2022-09-28T21:20:08.143Z,81.06
2022-09-28T21:22:51.664Z,82.84
2022-09-28T21:25:35.431Z,82.15
2022-09-28T21:28:18.890Z,82.34
2022-09-28T21:31:05.825Z,82.28
2022-09-28T21:33:50.084Z,82.04
2022-09-28T21:36:33.975Z,82.28
2022-09-28T21:39:18.645Z,83.01
2022-09-28T21:42:02.090Z,84.95
2022-09-28T21:44:45.636Z,86.93
2022-09-28T21:47:29.905Z,86.33
2022-09-28T21:50:14.290Z,84.95
2022-09-28T21:52:57.874Z,87.20
2022-09-28T21:55:42.755Z,86.81
2022-09-28T21:58:29.812Z,84.75
2022-09-28T22:01:19.850Z,83.35
2022-09-28T22:04:03.360Z,82.83
2022-09-28T22:06:47.093Z,82.38
2022-09-28T22:09:30.626Z,82.10
2022-09-28T22:12:14.357Z,80.75
2022-09-28T22:14:57.977Z,79.03
2022-09-28T22:17:41.825Z,79.08
2022-09-28T22:20:25.461Z,78.10
2022-09-28T22:23:09.126Z,78.02
2022-09-28T22:26:05.865Z,78.24
2022-09-28T22:29:01.571Z,79.79
2022-09-28T22:31:45.019Z,80.41
2022-09-28T22:34:31.763Z,80.78
2022-09-28T22:37:15.218Z,78.63
2022-09-28T22:40:00.845Z,78.58
2022-09-28T22:42:44.447Z,79.57
2022-09-28T22:45:28.107Z,79.40
2022-09-28T22:48:12.911Z,79.32
2022-09-28T22:50:56.307Z,79.69
2022-09-28T22:53:39.721Z,79.72
2022-09-28T22:56:24.105Z,78.90
2022-09-28T22:59:07.645Z,79.69
2022-09-28T23:01:51.149Z,81.02
2022-09-28T23:04:34.679Z,85.52
2022-09-28T23:07:18.279Z,83.10
2022-09-28T23:10:01.776Z,82.24
2022-09-28T23:12:45.387Z,81.30
2022-09-28T23:15:29.614Z,81.83
2022-09-28T23:18:12.998Z,81.17
2022-09-28T23:21:00.002Z,82.80
2022-09-28T23:23:46.240Z,82.31
2022-09-28T23:26:32.792Z,81.67
2022-09-28T23:29:16.263Z,82.25
2022-09-28T23:31:59.777Z,79.49
2022-09-28T23:34:43.399Z,79.25
2022-09-28T23:37:26.827Z,79.73
2022-09-28T23:40:10.608Z,79.83
2022-09-28T23:42:53.986Z,80.02
2022-09-28T23:45:37.563Z,79.12
2022-09-28T23:48:21.035Z,78.47
2022-09-28T23:51:04.729Z,77.41
2022-09-28T23:53:48.172Z,77.96
2022-09-28T23:56:31.612Z,77.44
2022-09-28T23:59:15.125Z,80.25
